sensor_id;sensor_type;location;lat;lon;timestamp;P1;durP1;ratioP1;P2;durP2;ratioP2
73170;SDS011;61381;50.118;19.962;2023-02-28T00:02:38;17.40;;;6.85;;
73170;SDS011;61381;50.118;19.962;2023-02-28T00:07:40;12.85;;;5.75;;
73170;SDS011;61381;50.118;19.962;2023-02-28T00:12:41;11.90;;;5.18;;
73170;SDS011;61381;50.118;19.962;2023-02-28T00:17:44;15.32;;;6.70;;
73170;SDS011;61381;50.118;19.962;2023-02-28T00:22:46;16.92;;;6.55;;
73170;SDS011;61381;50.118;19.962;2023-02-28T00:27:49;17.83;;;7.03;;
73170;SDS011;61381;50.118;19.962;2023-02-28T00:32:53;10.70;;;5.28;;
73170;SDS011;61381;50.118;19.962;2023-02-28T00:37:54;11.00;;;4.85;;
73170;SDS011;61381;50.118;19.962;2023-02-28T00:42:55;15.75;;;5.97;;
73170;SDS011;61381;50.118;19.962;2023-02-28T00:47:57;17.23;;;6.10;;
73170;SDS011;61381;50.118;19.962;2023-02-28T00:52:58;12.95;;;5.78;;
73170;SDS011;61381;50.118;19.962;2023-02-28T00:57:59;18.65;;;6.30;;
73170;SDS011;61381;50.118;19.962;2023-02-28T01:03:02;31.90;;;11.52;;
73170;SDS011;61381;50.118;19.962;2023-02-28T01:08:03;24.83;;;11.60;;
73170;SDS011;61381;50.118;19.962;2023-02-28T01:18:07;22.45;;;9.13;;
73170;SDS011;61381;50.118;19.962;2023-02-28T01:23:09;14.68;;;6.78;;
73170;SDS011;61381;50.118;19.962;2023-02-28T01:28:10;20.25;;;8.85;;
73170;SDS011;61381;50.118;19.962;2023-02-28T01:33:12;25.60;;;9.68;;
73170;SDS011;61381;50.118;19.962;2023-02-28T01:38:14;12.27;;;6.30;;
73170;SDS011;61381;50.118;19.962;2023-02-28T01:43:21;20.92;;;7.88;;
73170;SDS011;61381;50.118;19.962;2023-02-28T01:48:26;24.52;;;9.23;;
73170;SDS011;61381;50.118;19.962;2023-02-28T01:53:31;25.42;;;9.10;;
73170;SDS011;61381;50.118;19.962;2023-02-28T01:58:35;27.67;;;11.60;;
73170;SDS011;61381;50.118;19.962;2023-02-28T02:03:38;24.55;;;10.35;;
73170;SDS011;61381;50.118;19.962;2023-02-28T02:08:40;22.55;;;10.02;;
73170;SDS011;61381;50.118;19.962;2023-02-28T02:13:53;15.95;;;7.15;;
73170;SDS011;61381;50.118;19.962;2023-02-28T02:19:14;24.27;;;10.90;;
73170;SDS011;61381;50.118;19.962;2023-02-28T02:30:13;21.92;;;9.68;;
73170;SDS011;61381;50.118;19.962;2023-02-28T02:35:31;16.95;;;7.47;;
73170;SDS011;61381;50.118;19.962;2023-02-28T02:40:37;16.40;;;8.43;;
73170;SDS011;61381;50.118;19.962;2023-02-28T02:45:44;10.75;;;5.85;;
73170;SDS011;61381;50.118;19.962;2023-02-28T02:50:53;14.05;;;5.85;;
73170;SDS011;61381;50.118;19.962;2023-02-28T02:55:56;12.63;;;6.78;;
73170;SDS011;61381;50.118;19.962;2023-02-28T03:01:00;12.18;;;6.55;;
73170;SDS011;61381;50.118;19.962;2023-02-28T03:06:04;15.00;;;6.40;;
73170;SDS011;61381;50.118;19.962;2023-02-28T03:11:06;16.45;;;6.60;;
73170;SDS011;61381;50.118;19.962;2023-02-28T03:21:38;20.38;;;7.63;;
73170;SDS011;61381;50.118;19.962;2023-02-28T03:26:45;14.13;;;6.40;;
73170;SDS011;61381;50.118;19.962;2023-02-28T03:31:53;31.17;;;15.27;;
73170;SDS011;61381;50.118;19.962;2023-02-28T03:36:59;23.25;;;10.23;;
73170;SDS011;61381;50.118;19.962;2023-02-28T03:42:05;23.30;;;9.68;;
73170;SDS011;61381;50.118;19.962;2023-02-28T03:47:11;18.75;;;7.80;;
73170;SDS011;61381;50.118;19.962;2023-02-28T03:52:16;20.13;;;9.35;;
73170;SDS011;61381;50.118;19.962;2023-02-28T03:57:23;20.50;;;8.55;;
73170;SDS011;61381;50.118;19.962;2023-02-28T04:02:32;24.55;;;11.55;;
73170;SDS011;61381;50.118;19.962;2023-02-28T04:07:35;19.75;;;8.52;;
73170;SDS011;61381;50.118;19.962;2023-02-28T04:12:37;24.55;;;9.95;;
73170;SDS011;61381;50.118;19.962;2023-02-28T04:17:38;20.70;;;9.25;;
73170;SDS011;61381;50.118;19.962;2023-02-28T04:22:40;18.48;;;9.82;;
73170;SDS011;61381;50.118;19.962;2023-02-28T04:27:41;9.35;;;6.68;;
73170;SDS011;61381;50.118;19.962;2023-02-28T04:32:44;23.75;;;10.15;;
73170;SDS011;61381;50.118;19.962;2023-02-28T04:37:46;19.10;;;10.77;;
73170;SDS011;61381;50.118;19.962;2023-02-28T04:42:47;22.70;;;9.77;;
73170;SDS011;61381;50.118;19.962;2023-02-28T04:47:48;22.65;;;9.20;;
73170;SDS011;61381;50.118;19.962;2023-02-28T04:52:51;21.27;;;9.20;;
73170;SDS011;61381;50.118;19.962;2023-02-28T04:57:52;21.15;;;10.07;;
73170;SDS011;61381;50.118;19.962;2023-02-28T05:02:53;23.42;;;9.70;;
73170;SDS011;61381;50.118;19.962;2023-02-28T05:07:56;24.40;;;9.48;;
73170;SDS011;61381;50.118;19.962;2023-02-28T05:12:57;19.85;;;8.90;;
73170;SDS011;61381;50.118;19.962;2023-02-28T05:17:58;16.63;;;7.68;;
73170;SDS011;61381;50.118;19.962;2023-02-28T05:23:00;22.10;;;8.30;;
73170;SDS011;61381;50.118;19.962;2023-02-28T05:28:02;17.02;;;7.72;;
73170;SDS011;61381;50.118;19.962;2023-02-28T05:33:04;17.00;;;8.98;;
73170;SDS011;61381;50.118;19.962;2023-02-28T05:38:06;22.25;;;9.32;;
73170;SDS011;61381;50.118;19.962;2023-02-28T05:43:09;21.95;;;9.90;;
73170;SDS011;61381;50.118;19.962;2023-02-28T05:48:11;17.50;;;8.70;;
73170;SDS011;61381;50.118;19.962;2023-02-28T05:53:13;30.60;;;10.00;;
73170;SDS011;61381;50.118;19.962;2023-02-28T05:58:14;43.08;;;17.25;;
73170;SDS011;61381;50.118;19.962;2023-02-28T06:03:16;22.95;;;9.60;;
73170;SDS011;61381;50.118;19.962;2023-02-28T06:08:18;23.27;;;10.55;;
73170;SDS011;61381;50.118;19.962;2023-02-28T06:13:19;23.50;;;10.48;;
73170;SDS011;61381;50.118;19.962;2023-02-28T06:18:20;21.25;;;9.90;;
73170;SDS011;61381;50.118;19.962;2023-02-28T06:23:23;24.92;;;9.73;;
73170;SDS011;61381;50.118;19.962;2023-02-28T06:28:25;27.35;;;10.60;;
73170;SDS011;61381;50.118;19.962;2023-02-28T06:33:26;23.80;;;9.93;;
73170;SDS011;61381;50.118;19.962;2023-02-28T06:38:29;19.88;;;9.75;;
73170;SDS011;61381;50.118;19.962;2023-02-28T06:43:30;35.03;;;11.48;;
73170;SDS011;61381;50.118;19.962;2023-02-28T06:48:33;22.33;;;9.55;;
73170;SDS011;61381;50.118;19.962;2023-02-28T06:53:36;23.80;;;10.73;;
73170;SDS011;61381;50.118;19.962;2023-02-28T06:58:38;19.42;;;8.63;;
73170;SDS011;61381;50.118;19.962;2023-02-28T07:03:39;19.45;;;8.23;;
73170;SDS011;61381;50.118;19.962;2023-02-28T07:08:41;16.95;;;7.38;;
73170;SDS011;61381;50.118;19.962;2023-02-28T07:13:43;12.18;;;6.90;;
73170;SDS011;61381;50.118;19.962;2023-02-28T07:18:44;17.58;;;8.25;;
73170;SDS011;61381;50.118;19.962;2023-02-28T07:23:46;14.10;;;7.43;;
73170;SDS011;61381;50.118;19.962;2023-02-28T07:28:47;18.75;;;7.65;;
73170;SDS011;61381;50.118;19.962;2023-02-28T07:33:49;17.20;;;7.18;;
73170;SDS011;61381;50.118;19.962;2023-02-28T07:38:52;14.38;;;6.47;;
73170;SDS011;61381;50.118;19.962;2023-02-28T07:43:53;15.77;;;7.78;;
73170;SDS011;61381;50.118;19.962;2023-02-28T07:48:55;13.10;;;6.43;;
73170;SDS011;61381;50.118;19.962;2023-02-28T07:53:57;21.55;;;6.70;;
73170;SDS011;61381;50.118;19.962;2023-02-28T07:58:58;11.15;;;5.55;;
73170;SDS011;61381;50.118;19.962;2023-02-28T08:03:59;17.00;;;6.50;;
73170;SDS011;61381;50.118;19.962;2023-02-28T08:09:02;12.13;;;5.80;;
73170;SDS011;61381;50.118;19.962;2023-02-28T08:14:03;10.45;;;5.65;;
73170;SDS011;61381;50.118;19.962;2023-02-28T08:19:05;12.13;;;5.20;;
73170;SDS011;61381;50.118;19.962;2023-02-28T08:24:07;9.50;;;4.47;;
73170;SDS011;61381;50.118;19.962;2023-02-28T08:29:09;11.25;;;4.20;;
73170;SDS011;61381;50.118;19.962;2023-02-28T08:34:11;16.00;;;4.65;;
73170;SDS011;61381;50.118;19.962;2023-02-28T08:39:15;13.40;;;4.82;;
73170;SDS011;61381;50.118;19.962;2023-02-28T08:44:16;10.05;;;4.28;;
73170;SDS011;61381;50.118;19.962;2023-02-28T08:49:17;10.45;;;5.25;;
73170;SDS011;61381;50.118;19.962;2023-02-28T08:54:20;9.77;;;5.03;;
73170;SDS011;61381;50.118;19.962;2023-02-28T08:59:21;8.60;;;4.45;;
73170;SDS011;61381;50.118;19.962;2023-02-28T09:04:22;9.68;;;4.25;;
73170;SDS011;61381;50.118;19.962;2023-02-28T09:09:24;5.20;;;2.95;;
73170;SDS011;61381;50.118;19.962;2023-02-28T09:14:26;10.10;;;4.05;;
73170;SDS011;61381;50.118;19.962;2023-02-28T09:19:27;11.68;;;4.15;;
73170;SDS011;61381;50.118;19.962;2023-02-28T09:24:30;6.03;;;2.97;;
73170;SDS011;61381;50.118;19.962;2023-02-28T09:29:32;4.72;;;3.00;;
73170;SDS011;61381;50.118;19.962;2023-02-28T09:34:34;7.13;;;3.05;;
73170;SDS011;61381;50.118;19.962;2023-02-28T09:39:36;7.32;;;3.40;;
73170;SDS011;61381;50.118;19.962;2023-02-28T09:44:38;11.13;;;4.35;;
73170;SDS011;61381;50.118;19.962;2023-02-28T09:49:43;11.00;;;4.78;;
73170;SDS011;61381;50.118;19.962;2023-02-28T09:54:48;10.18;;;4.95;;
73170;SDS011;61381;50.118;19.962;2023-02-28T09:59:52;8.40;;;4.78;;
73170;SDS011;61381;50.118;19.962;2023-02-28T10:05:03;10.35;;;4.72;;
73170;SDS011;61381;50.118;19.962;2023-02-28T10:15:24;10.75;;;5.28;;
73170;SDS011;61381;50.118;19.962;2023-02-28T10:20:28;12.05;;;5.18;;
73170;SDS011;61381;50.118;19.962;2023-02-28T10:25:35;13.30;;;6.00;;
73170;SDS011;61381;50.118;19.962;2023-02-28T10:30:39;9.15;;;4.10;;
73170;SDS011;61381;50.118;19.962;2023-02-28T10:35:42;7.68;;;4.43;;
73170;SDS011;61381;50.118;19.962;2023-02-28T10:40:45;7.30;;;3.97;;
73170;SDS011;61381;50.118;19.962;2023-02-28T10:45:52;8.70;;;4.63;;
73170;SDS011;61381;50.118;19.962;2023-02-28T10:50:56;8.52;;;3.90;;
73170;SDS011;61381;50.118;19.962;2023-02-28T10:56:01;9.50;;;3.75;;
73170;SDS011;61381;50.118;19.962;2023-02-28T11:01:04;11.20;;;4.07;;
73170;SDS011;61381;50.118;19.962;2023-02-28T11:06:05;8.73;;;3.67;;
73170;SDS011;61381;50.118;19.962;2023-02-28T11:11:10;5.70;;;3.55;;
73170;SDS011;61381;50.118;19.962;2023-02-28T11:16:12;7.85;;;4.00;;
73170;SDS011;61381;50.118;19.962;2023-02-28T11:21:15;7.88;;;3.97;;
73170;SDS011;61381;50.118;19.962;2023-02-28T11:26:38;7.93;;;3.97;;
73170;SDS011;61381;50.118;19.962;2023-02-28T11:31:40;11.15;;;6.80;;
73170;SDS011;61381;50.118;19.962;2023-02-28T11:36:42;10.13;;;3.80;;
73170;SDS011;61381;50.118;19.962;2023-02-28T11:41:50;8.30;;;3.47;;
73170;SDS011;61381;50.118;19.962;2023-02-28T11:47:04;8.00;;;3.92;;
73170;SDS011;61381;50.118;19.962;2023-02-28T11:52:16;10.05;;;5.38;;
73170;SDS011;61381;50.118;19.962;2023-02-28T11:57:28;9.50;;;4.65;;
73170;SDS011;61381;50.118;19.962;2023-02-28T12:02:38;9.57;;;3.78;;
73170;SDS011;61381;50.118;19.962;2023-02-28T12:08:00;5.75;;;3.38;;
73170;SDS011;61381;50.118;19.962;2023-02-28T12:13:11;10.45;;;4.30;;
73170;SDS011;61381;50.118;19.962;2023-02-28T12:18:23;9.07;;;4.13;;
73170;SDS011;61381;50.118;19.962;2023-02-28T12:29:04;9.90;;;4.70;;
73170;SDS011;61381;50.118;19.962;2023-02-28T12:34:14;13.32;;;6.72;;
73170;SDS011;61381;50.118;19.962;2023-02-28T12:39:20;9.25;;;4.53;;
73170;SDS011;61381;50.118;19.962;2023-02-28T12:44:28;11.38;;;4.85;;
73170;SDS011;61381;50.118;19.962;2023-02-28T12:54:40;10.73;;;5.47;;
73170;SDS011;61381;50.118;19.962;2023-02-28T12:59:50;8.30;;;4.18;;
73170;SDS011;61381;50.118;19.962;2023-02-28T13:04:56;9.57;;;4.55;;
73170;SDS011;61381;50.118;19.962;2023-02-28T13:10:07;11.38;;;6.03;;
73170;SDS011;61381;50.118;19.962;2023-02-28T13:15:16;11.48;;;4.68;;
73170;SDS011;61381;50.118;19.962;2023-02-28T13:20:20;16.00;;;6.40;;
73170;SDS011;61381;50.118;19.962;2023-02-28T13:31:04;9.60;;;5.10;;
73170;SDS011;61381;50.118;19.962;2023-02-28T13:36:07;8.20;;;3.72;;
73170;SDS011;61381;50.118;19.962;2023-02-28T13:52:28;7.53;;;3.63;;
73170;SDS011;61381;50.118;19.962;2023-02-28T14:02:54;13.75;;;6.00;;
73170;SDS011;61381;50.118;19.962;2023-02-28T14:08:12;11.15;;;5.35;;
73170;SDS011;61381;50.118;19.962;2023-02-28T14:18:48;27.20;;;14.55;;
73170;SDS011;61381;50.118;19.962;2023-02-28T14:29:53;6.55;;;3.75;;
73170;SDS011;61381;50.118;19.962;2023-02-28T14:35:16;8.40;;;4.07;;
73170;SDS011;61381;50.118;19.962;2023-02-28T14:40:29;10.27;;;5.43;;
73170;SDS011;61381;50.118;19.962;2023-02-28T14:45:33;11.95;;;6.25;;
73170;SDS011;61381;50.118;19.962;2023-02-28T14:50:37;14.00;;;6.95;;
73170;SDS011;61381;50.118;19.962;2023-02-28T14:55:43;12.30;;;5.15;;
73170;SDS011;61381;50.118;19.962;2023-02-28T15:00:46;8.10;;;4.20;;
73170;SDS011;61381;50.118;19.962;2023-02-28T15:05:54;11.70;;;6.55;;
73170;SDS011;61381;50.118;19.962;2023-02-28T15:10:57;11.27;;;6.65;;
73170;SDS011;61381;50.118;19.962;2023-02-28T15:16:00;12.00;;;6.03;;
73170;SDS011;61381;50.118;19.962;2023-02-28T15:21:06;10.23;;;4.65;;
73170;SDS011;61381;50.118;19.962;2023-02-28T15:26:12;9.48;;;4.43;;
73170;SDS011;61381;50.118;19.962;2023-02-28T15:31:20;9.60;;;5.38;;
73170;SDS011;61381;50.118;19.962;2023-02-28T15:36:26;11.30;;;5.03;;
73170;SDS011;61381;50.118;19.962;2023-02-28T15:41:30;10.45;;;5.30;;
73170;SDS011;61381;50.118;19.962;2023-02-28T15:46:36;19.50;;;7.93;;
73170;SDS011;61381;50.118;19.962;2023-02-28T15:51:38;10.77;;;4.28;;
73170;SDS011;61381;50.118;19.962;2023-02-28T15:56:43;11.88;;;5.10;;
73170;SDS011;61381;50.118;19.962;2023-02-28T16:01:45;11.63;;;5.82;;
73170;SDS011;61381;50.118;19.962;2023-02-28T16:06:53;11.40;;;6.13;;
73170;SDS011;61381;50.118;19.962;2023-02-28T16:12:02;22.05;;;7.97;;
73170;SDS011;61381;50.118;19.962;2023-02-28T16:17:05;35.15;;;13.68;;
73170;SDS011;61381;50.118;19.962;2023-02-28T16:22:09;15.60;;;7.32;;
73170;SDS011;61381;50.118;19.962;2023-02-28T16:27:15;15.10;;;7.55;;
73170;SDS011;61381;50.118;19.962;2023-02-28T16:32:20;18.42;;;9.40;;
73170;SDS011;61381;50.118;19.962;2023-02-28T16:37:23;27.90;;;13.25;;
73170;SDS011;61381;50.118;19.962;2023-02-28T16:42:25;38.13;;;16.92;;
73170;SDS011;61381;50.118;19.962;2023-02-28T16:47:28;68.75;;;27.73;;
73170;SDS011;61381;50.118;19.962;2023-02-28T16:52:31;85.78;;;35.13;;
73170;SDS011;61381;50.118;19.962;2023-02-28T16:57:32;61.67;;;25.95;;
73170;SDS011;61381;50.118;19.962;2023-02-28T17:02:33;56.70;;;21.60;;
73170;SDS011;61381;50.118;19.962;2023-02-28T17:07:36;45.83;;;18.73;;
73170;SDS011;61381;50.118;19.962;2023-02-28T17:12:37;36.35;;;14.80;;
73170;SDS011;61381;50.118;19.962;2023-02-28T17:17:38;58.85;;;26.15;;
73170;SDS011;61381;50.118;19.962;2023-02-28T17:22:41;41.03;;;20.25;;
73170;SDS011;61381;50.118;19.962;2023-02-28T17:27:42;30.77;;;15.93;;
73170;SDS011;61381;50.118;19.962;2023-02-28T17:32:44;30.05;;;12.68;;
73170;SDS011;61381;50.118;19.962;2023-02-28T17:37:46;33.63;;;12.02;;
73170;SDS011;61381;50.118;19.962;2023-02-28T17:42:47;20.55;;;10.55;;
73170;SDS011;61381;50.118;19.962;2023-02-28T17:47:49;26.13;;;11.55;;
73170;SDS011;61381;50.118;19.962;2023-02-28T17:52:51;23.40;;;12.18;;
73170;SDS011;61381;50.118;19.962;2023-02-28T17:57:52;23.60;;;9.90;;
73170;SDS011;61381;50.118;19.962;2023-02-28T18:02:54;26.58;;;12.27;;
73170;SDS011;61381;50.118;19.962;2023-02-28T18:07:56;32.58;;;15.10;;
73170;SDS011;61381;50.118;19.962;2023-02-28T18:12:58;37.20;;;16.83;;
73170;SDS011;61381;50.118;19.962;2023-02-28T18:18:00;59.80;;;24.00;;
73170;SDS011;61381;50.118;19.962;2023-02-28T18:23:02;100.30;;;45.03;;
73170;SDS011;61381;50.118;19.962;2023-02-28T18:28:03;90.75;;;40.60;;
73170;SDS011;61381;50.118;19.962;2023-02-28T18:33:05;61.45;;;25.55;;
73170;SDS011;61381;50.118;19.962;2023-02-28T18:38:08;64.10;;;25.13;;
73170;SDS011;61381;50.118;19.962;2023-02-28T18:43:12;65.07;;;25.88;;
73170;SDS011;61381;50.118;19.962;2023-02-28T18:48:13;61.83;;;24.17;;
73170;SDS011;61381;50.118;19.962;2023-02-28T18:53:16;51.90;;;22.00;;
73170;SDS011;61381;50.118;19.962;2023-02-28T18:58:17;38.60;;;17.27;;
73170;SDS011;61381;50.118;19.962;2023-02-28T19:03:19;48.10;;;18.48;;
73170;SDS011;61381;50.118;19.962;2023-02-28T19:08:21;57.90;;;23.05;;
73170;SDS011;61381;50.118;19.962;2023-02-28T19:13:23;53.90;;;20.73;;
73170;SDS011;61381;50.118;19.962;2023-02-28T19:18:24;45.25;;;20.20;;
73170;SDS011;61381;50.118;19.962;2023-02-28T19:23:26;58.05;;;19.70;;
73170;SDS011;61381;50.118;19.962;2023-02-28T19:28:28;44.30;;;18.92;;
73170;SDS011;61381;50.118;19.962;2023-02-28T19:33:30;45.20;;;20.63;;
73170;SDS011;61381;50.118;19.962;2023-02-28T19:38:32;43.63;;;17.63;;
73170;SDS011;61381;50.118;19.962;2023-02-28T19:43:34;39.95;;;17.73;;
73170;SDS011;61381;50.118;19.962;2023-02-28T19:48:35;51.85;;;20.98;;
73170;SDS011;61381;50.118;19.962;2023-02-28T19:53:38;52.92;;;22.30;;
73170;SDS011;61381;50.118;19.962;2023-02-28T19:58:41;63.47;;;28.88;;
73170;SDS011;61381;50.118;19.962;2023-02-28T20:03:42;72.03;;;28.83;;
73170;SDS011;61381;50.118;19.962;2023-02-28T20:08:48;64.10;;;26.70;;
73170;SDS011;61381;50.118;19.962;2023-02-28T20:13:51;66.60;;;26.73;;
73170;SDS011;61381;50.118;19.962;2023-02-28T20:18:52;50.67;;;19.92;;
73170;SDS011;61381;50.118;19.962;2023-02-28T20:23:54;59.38;;;25.35;;
73170;SDS011;61381;50.118;19.962;2023-02-28T20:28:56;54.97;;;23.13;;
73170;SDS011;61381;50.118;19.962;2023-02-28T20:33:57;42.08;;;18.73;;
73170;SDS011;61381;50.118;19.962;2023-02-28T20:38:59;40.92;;;17.80;;
73170;SDS011;61381;50.118;19.962;2023-02-28T20:44:00;47.53;;;19.98;;
73170;SDS011;61381;50.118;19.962;2023-02-28T20:49:02;68.38;;;28.40;;
73170;SDS011;61381;50.118;19.962;2023-02-28T20:54:04;108.13;;;40.45;;
73170;SDS011;61381;50.118;19.962;2023-02-28T20:59:06;98.90;;;39.08;;
73170;SDS011;61381;50.118;19.962;2023-02-28T21:04:10;154.32;;;53.05;;
73170;SDS011;61381;50.118;19.962;2023-02-28T21:09:13;111.53;;;45.70;;
73170;SDS011;61381;50.118;19.962;2023-02-28T21:14:15;99.80;;;40.60;;
73170;SDS011;61381;50.118;19.962;2023-02-28T21:19:17;66.18;;;24.65;;
73170;SDS011;61381;50.118;19.962;2023-02-28T21:24:19;77.20;;;22.83;;
73170;SDS011;61381;50.118;19.962;2023-02-28T21:29:21;96.70;;;27.20;;
73170;SDS011;61381;50.118;19.962;2023-02-28T21:34:22;113.05;;;27.35;;
73170;SDS011;61381;50.118;19.962;2023-02-28T21:39:25;44.65;;;16.92;;
73170;SDS011;61381;50.118;19.962;2023-02-28T21:44:26;51.88;;;18.15;;
73170;SDS011;61381;50.118;19.962;2023-02-28T21:49:28;28.15;;;12.60;;
73170;SDS011;61381;50.118;19.962;2023-02-28T21:54:30;52.80;;;21.48;;
73170;SDS011;61381;50.118;19.962;2023-02-28T21:59:32;102.97;;;37.40;;
73170;SDS011;61381;50.118;19.962;2023-02-28T22:04:33;97.00;;;41.05;;
73170;SDS011;61381;50.118;19.962;2023-02-28T22:09:36;80.68;;;29.98;;
73170;SDS011;61381;50.118;19.962;2023-02-28T22:14:37;62.22;;;26.75;;
73170;SDS011;61381;50.118;19.962;2023-02-28T22:19:39;50.78;;;21.75;;
73170;SDS011;61381;50.118;19.962;2023-02-28T22:24:41;64.72;;;26.55;;
73170;SDS011;61381;50.118;19.962;2023-02-28T22:29:42;45.28;;;19.15;;
73170;SDS011;61381;50.118;19.962;2023-02-28T22:34:43;53.17;;;22.33;;
73170;SDS011;61381;50.118;19.962;2023-02-28T22:39:46;61.97;;;24.52;;
73170;SDS011;61381;50.118;19.962;2023-02-28T22:44:48;46.67;;;19.00;;
73170;SDS011;61381;50.118;19.962;2023-02-28T22:49:50;39.53;;;16.30;;
73170;SDS011;61381;50.118;19.962;2023-02-28T22:54:53;54.05;;;21.63;;
73170;SDS011;61381;50.118;19.962;2023-02-28T22:59:54;30.52;;;13.63;;
73170;SDS011;61381;50.118;19.962;2023-02-28T23:04:55;33.80;;;14.38;;
73170;SDS011;61381;50.118;19.962;2023-02-28T23:09:58;28.95;;;12.30;;
73170;SDS011;61381;50.118;19.962;2023-02-28T23:14:59;22.05;;;8.73;;
73170;SDS011;61381;50.118;19.962;2023-02-28T23:20:01;24.77;;;11.82;;
73170;SDS011;61381;50.118;19.962;2023-02-28T23:25:04;18.38;;;8.32;;
73170;SDS011;61381;50.118;19.962;2023-02-28T23:30:06;35.17;;;14.48;;
73170;SDS011;61381;50.118;19.962;2023-02-28T23:35:09;25.55;;;11.43;;
73170;SDS011;61381;50.118;19.962;2023-02-28T23:40:12;32.10;;;13.27;;
73170;SDS011;61381;50.118;19.962;2023-02-28T23:45:14;42.45;;;16.65;;
73170;SDS011;61381;50.118;19.962;2023-02-28T23:50:16;43.15;;;16.42;;
73170;SDS011;61381;50.118;19.962;2023-02-28T23:55:18;44.78;;;18.45;;
